This is the latest recevied weather packets stored in our database for station/object EA2DXT-10. If no packets are shown the sender has not sent any weather packets the latest 10 day(s).
| Time | Temp. | Humidity | Pressure | Rain* | Wind** | Luminosity | Snow |
|---|---|---|---|---|---|---|---|
| 1777425199 | 11.11° C | 78% | 939.7 hPa | - | - | - | - |
| 1777425187 | 12.78° C | 78% | 942.1 hPa | - | - | - | - |
| 1777424288 | 13.33° C | 77% | 942.6 hPa | - | - | - | - |
| 1777424287 | 13.33° C | 78% | 942.6 hPa | - | - | - | - |
| 1777424269 | 12.78° C | 78% | 942.5 hPa | - | - | - | - |
| 1777424256 | 13.33° C | 77% | 942.6 hPa | - | - | - | - |
| 1777423342 | 12.78° C | 77% | 942.8 hPa | - | - | - | - |
| 1777422442 | 12.78° C | 76% | 942.8 hPa | - | - | - | - |
| 1777421542 | 12.22° C | 76% | 942.9 hPa | - | - | - | - |
| 1777420641 | 12.22° C | 75% | 947.1 hPa | - | - | - | - |
| 1777419741 | 5.56° C | 74% | 933 hPa | - | - | - | - |
| 1777418840 | 12.22° C | 74% | 942.9 hPa | - | - | - | - |
| 1777417940 | 12.78° C | 73% | 943.3 hPa | - | - | - | - |
| 1777417259 | 11.11° C | 73% | 940.9 hPa | - | - | - | - |
| 1777417039 | 12.22° C | 73% | 947 hPa | - | - | - | - |
| 1777416154 | 12.22° C | 72% | 947 hPa | - | - | - | - |
| 1777415646 | 12.78° C | 69% | 943.7 hPa | - | - | - | - |
| 1777414745 | 12.78° C | 69% | 943.7 hPa | - | - | - | - |
| 1777413843 | 12.78° C | 69% | 943.8 hPa | - | - | - | - |
| 1777412942 | 13.33° C | 69% | 943.9 hPa | - | - | - | - |
| 1777412042 | 13.89° C | 69% | 944 hPa | - | - | - | - |
| 1777411141 | 13.89° C | 69% | 944.1 hPa | - | - | - | - |
| 1777410240 | 13.89° C | 69% | 944 hPa | - | - | - | - |
| 1777409339 | 13.89° C | 69% | 943.9 hPa | - | - | - | - |
| 1777408438 | 13.89° C | 69% | 943.7 hPa | - | - | - | - |
* Rain since midnight (hover to see other rain measurements)
** Current wind speed in m/s (hover to see current wind gust speed)